createdAt,value
2019-05-18T00:00:15.041Z,97071.87
2019-05-18T00:02:46.700Z,97066.94
2019-05-18T00:05:18.333Z,97069.56
2019-05-18T00:07:49.895Z,97065.77
2019-05-18T00:10:21.590Z,97069.71
2019-05-18T00:12:53.218Z,97076.58
2019-05-18T00:15:24.799Z,97071.17
2019-05-18T00:17:56.348Z,97078.73
2019-05-18T00:20:27.959Z,97074.10
2019-05-18T00:22:59.486Z,97073.95
2019-05-18T00:25:31.077Z,97066.73
2019-05-18T00:28:02.646Z,97066.73
2019-05-18T00:30:35.323Z,97067.59
2019-05-18T00:33:07.858Z,97064.15
2019-05-18T00:35:39.453Z,97065.27
2019-05-18T00:38:11.028Z,97068.23
2019-05-18T00:40:42.609Z,97070.36
2019-05-18T00:43:14.203Z,97072.48
2019-05-18T00:45:45.800Z,97070.17
2019-05-18T00:48:18.423Z,97067.39
2019-05-18T00:50:50.015Z,97063.30
2019-05-18T00:53:21.576Z,97060.53
2019-05-18T00:55:53.180Z,97061.02
2019-05-18T00:58:24.742Z,97064.61
2019-05-18T01:00:56.332Z,97066.72
2019-05-18T01:03:27.913Z,97070.62
2019-05-18T01:05:59.510Z,97071.42
2019-05-18T01:08:31.083Z,97066.83
2019-05-18T01:11:02.651Z,97059.63
2019-05-18T01:13:34.226Z,97059.63
2019-05-18T01:16:05.793Z,97065.22
2019-05-18T01:18:37.355Z,97062.90
2019-05-18T01:21:08.939Z,97066.48
2019-05-18T01:23:40.526Z,97064.70
2019-05-18T01:26:12.165Z,97065.67
2019-05-18T01:28:43.762Z,97068.30
2019-05-18T01:31:15.312Z,97063.20
2019-05-18T01:33:46.929Z,97065.17
2019-05-18T01:36:18.496Z,97064.67
2019-05-18T01:38:50.107Z,97069.87
2019-05-18T01:41:21.671Z,97068.24
2019-05-18T01:43:53.241Z,97071.88
2019-05-18T01:46:24.824Z,97066.94
2019-05-18T01:48:56.426Z,97066.94
2019-05-18T01:51:28.006Z,97067.08
2019-05-18T01:53:59.585Z,97070.33
2019-05-18T01:56:31.164Z,97070.52
2019-05-18T01:59:02.865Z,97069.55
2019-05-18T02:01:34.445Z,97072.99
2019-05-18T02:04:06.037Z,97078.19
2019-05-18T02:06:37.643Z,97074.91
2019-05-18T02:09:10.147Z,97077.34
2019-05-18T02:11:43.367Z,97087.02
2019-05-18T02:14:14.945Z,97079.14
2019-05-18T02:16:46.522Z,97081.11
2019-05-18T02:19:18.091Z,97076.31
2019-05-18T02:21:49.671Z,97076.46
2019-05-18T02:24:21.241Z,97068.25
2019-05-18T02:26:52.839Z,97069.91
2019-05-18T02:29:24.410Z,97070.07
2019-05-18T02:31:56.000Z,97071.88
2019-05-18T02:34:27.549Z,97073.34
2019-05-18T02:36:59.179Z,97075.47
2019-05-18T02:39:30.696Z,97073.84
2019-05-18T02:42:02.277Z,97071.69
2019-05-18T02:44:33.823Z,97070.52
2019-05-18T02:47:05.408Z,97070.87
2019-05-18T02:49:36.975Z,97063.81
2019-05-18T02:52:08.552Z,97063.00
2019-05-18T02:54:40.121Z,97059.07
2019-05-18T02:57:11.703Z,97056.80
2019-05-18T02:59:43.252Z,97052.52
2019-05-18T03:02:14.858Z,97052.32
2019-05-18T03:04:46.425Z,97048.19
2019-05-18T03:07:18.008Z,97051.77
2019-05-18T03:09:49.553Z,97044.20
2019-05-18T03:12:22.218Z,97048.12
2019-05-18T03:14:53.783Z,97045.50
2019-05-18T03:17:26.367Z,97041.72
2019-05-18T03:19:57.919Z,97042.04
2019-05-18T03:22:29.650Z,97042.48
2019-05-18T03:25:01.209Z,97044.65
2019-05-18T03:27:32.785Z,97051.05
2019-05-18T03:30:04.413Z,97051.36
2019-05-18T03:32:35.990Z,97060.23
2019-05-18T03:35:07.743Z,97062.35
2019-05-18T03:37:39.322Z,97057.55
2019-05-18T03:40:11.007Z,97054.57
2019-05-18T03:42:42.573Z,97059.47
2019-05-18T03:45:14.476Z,97057.34
2019-05-18T03:47:46.036Z,97062.08
2019-05-18T03:50:17.725Z,97066.36
2019-05-18T03:52:49.294Z,97067.17
2019-05-18T03:55:20.869Z,97067.33
2019-05-18T03:57:52.449Z,97066.87
2019-05-18T04:00:24.005Z,97069.70
2019-05-18T04:02:55.594Z,97063.81
2019-05-18T04:05:27.196Z,97068.34
2019-05-18T04:07:58.753Z,97063.74
2019-05-18T04:10:30.342Z,97065.27
2019-05-18T04:13:01.946Z,97063.46
2019-05-18T04:15:33.539Z,97063.81
2019-05-18T04:18:05.149Z,97060.24
2019-05-18T04:20:36.693Z,97056.70
2019-05-18T04:23:08.297Z,97059.17
2019-05-18T04:25:43.547Z,97061.99
2019-05-18T04:28:13.272Z,97059.33
2019-05-18T04:30:44.842Z,97064.88
2019-05-18T04:33:16.432Z,97063.66
2019-05-18T04:35:48.014Z,97076.63
2019-05-18T04:38:19.588Z,97068.50
2019-05-18T04:40:52.216Z,97080.86
2019-05-18T04:43:23.811Z,97082.53
2019-05-18T04:45:55.360Z,97081.00
2019-05-18T04:48:26.935Z,97081.36
2019-05-18T04:50:58.504Z,97083.72
2019-05-18T04:53:31.170Z,97087.55
2019-05-18T04:56:02.735Z,97085.42
2019-05-18T04:58:34.317Z,97090.22
2019-05-18T05:01:05.892Z,97091.56
2019-05-18T05:03:37.551Z,97084.38
2019-05-18T05:06:09.097Z,97089.48
2019-05-18T05:08:40.679Z,97084.77
2019-05-18T05:11:12.243Z,97092.22
2019-05-18T05:13:43.830Z,97093.91
2019-05-18T05:16:15.409Z,97091.88
2019-05-18T05:18:47.106Z,97101.12
2019-05-18T05:21:18.676Z,97095.44
2019-05-18T05:23:50.302Z,97099.92
2019-05-18T05:26:21.861Z,97104.23
2019-05-18T05:28:53.609Z,97099.00
2019-05-18T05:31:25.169Z,97090.80
2019-05-18T05:33:56.774Z,97093.45
2019-05-18T05:36:28.353Z,97089.69
2019-05-18T05:38:59.944Z,97091.16
2019-05-18T05:41:31.524Z,97088.19
2019-05-18T05:44:04.191Z,97089.67
2019-05-18T05:46:37.441Z,97094.92
2019-05-18T05:49:09.141Z,97095.11
2019-05-18T05:51:40.730Z,97097.23
2019-05-18T05:54:13.382Z,97103.17
2019-05-18T05:56:44.987Z,97106.78
2019-05-18T05:59:16.548Z,97102.49
2019-05-18T06:01:48.120Z,97109.58
2019-05-18T06:04:19.707Z,97107.78
2019-05-18T06:06:51.344Z,97105.48
2019-05-18T06:09:22.923Z,97106.95
2019-05-18T06:11:54.534Z,97104.98
2019-05-18T06:14:26.143Z,97105.78
2019-05-18T06:16:57.730Z,97108.11
2019-05-18T06:19:29.350Z,97105.64
2019-05-18T06:22:00.899Z,97105.48
2019-05-18T06:24:32.737Z,97110.75
2019-05-18T06:27:04.301Z,97111.55
2019-05-18T06:29:35.899Z,97113.69
2019-05-18T06:32:07.495Z,97115.84
2019-05-18T06:34:39.075Z,97107.45
2019-05-18T06:37:10.680Z,97110.41
2019-05-18T06:39:42.261Z,97107.45
2019-05-18T06:42:13.864Z,97110.09
2019-05-18T06:44:45.444Z,97119.14
2019-05-18T06:47:17.063Z,97110.58
2019-05-18T06:49:48.655Z,97116.00
2019-05-18T06:52:20.251Z,97112.55
2019-05-18T06:54:52.137Z,97117.94
2019-05-18T06:57:25.095Z,97121.88
2019-05-18T06:59:56.660Z,97122.02
2019-05-18T07:02:28.244Z,97125.14
2019-05-18T07:04:59.816Z,97122.72
2019-05-18T07:07:31.398Z,97121.14
2019-05-18T07:10:02.969Z,97124.30
2019-05-18T07:12:34.577Z,97127.84
2019-05-18T07:15:07.161Z,97125.44
2019-05-18T07:17:38.882Z,97128.68
2019-05-18T07:20:11.855Z,97127.88
2019-05-18T07:22:43.506Z,97127.45
2019-05-18T07:25:15.407Z,97120.73
2019-05-18T07:27:46.973Z,97122.46
2019-05-18T07:30:18.864Z,97130.92
2019-05-18T07:32:50.514Z,97123.12
2019-05-18T07:35:22.238Z,97119.28
2019-05-18T07:37:53.834Z,97125.62
2019-05-18T07:40:25.422Z,97120.59
2019-05-18T07:42:57.038Z,97113.66
2019-05-18T07:45:29.832Z,97117.64
2019-05-18T07:48:01.409Z,97117.98
2019-05-18T07:50:33.010Z,97113.06
2019-05-18T07:53:04.605Z,97106.55
2019-05-18T07:55:36.192Z,97113.70
2019-05-18T07:58:09.397Z,97111.06
2019-05-18T08:00:41.191Z,97112.81
2019-05-18T08:03:12.768Z,97118.67
2019-05-18T08:05:44.377Z,97116.02
2019-05-18T08:08:16.070Z,97109.22
2019-05-18T08:10:47.693Z,97109.83
2019-05-18T08:13:19.308Z,97112.86
2019-05-18T08:15:58.275Z,97114.12
2019-05-18T08:18:29.996Z,97115.77
2019-05-18T08:21:01.607Z,97103.41
2019-05-18T08:23:33.577Z,97101.95
2019-05-18T08:26:05.190Z,97100.75
2019-05-18T08:28:36.796Z,97094.70
2019-05-18T08:31:08.400Z,97099.22
2019-05-18T08:33:39.995Z,97100.05
2019-05-18T08:36:11.589Z,97095.76
2019-05-18T08:38:43.175Z,97092.62
2019-05-18T08:41:14.779Z,97098.64
2019-05-18T08:43:46.365Z,97087.81
2019-05-18T08:46:18.000Z,97091.27
2019-05-18T08:48:49.617Z,97088.81
2019-05-18T08:51:21.221Z,97085.76
2019-05-18T08:53:52.832Z,97082.98
2019-05-18T08:56:24.400Z,97083.40
2019-05-18T08:58:56.055Z,97079.39
2019-05-18T09:01:27.767Z,97078.98
2019-05-18T09:03:59.416Z,97071.63
2019-05-18T09:06:31.063Z,97075.39
2019-05-18T09:09:02.848Z,97069.05
2019-05-18T09:11:34.503Z,97067.41
2019-05-18T09:14:06.712Z,97070.59
2019-05-18T09:16:39.354Z,97072.00
2019-05-18T09:19:10.977Z,97069.10
2019-05-18T09:21:42.581Z,97071.38
2019-05-18T09:24:14.197Z,97067.17
2019-05-18T09:26:45.818Z,97065.53
2019-05-18T09:29:17.439Z,97064.83
2019-05-18T09:31:49.068Z,97064.84
2019-05-18T09:34:20.691Z,97064.13
2019-05-18T09:36:52.275Z,97057.96
2019-05-18T09:39:23.887Z,97059.87
2019-05-18T09:41:55.519Z,97060.67
2019-05-18T09:44:27.130Z,97058.35
2019-05-18T09:46:58.794Z,97054.72
2019-05-18T09:49:30.409Z,97053.36
2019-05-18T09:52:02.135Z,97060.50
2019-05-18T09:54:34.343Z,97053.52
2019-05-18T09:57:06.098Z,97059.23
2019-05-18T09:59:37.727Z,97058.57
2019-05-18T10:02:09.614Z,97060.03
2019-05-18T10:04:41.234Z,97059.63
2019-05-18T10:07:12.840Z,97056.69
2019-05-18T10:09:44.439Z,97048.38
2019-05-18T10:12:16.060Z,97056.12
2019-05-18T10:14:47.660Z,97051.20
2019-05-18T10:17:19.272Z,97053.06
2019-05-18T10:19:50.859Z,97050.62
2019-05-18T10:22:22.436Z,97051.65
2019-05-18T10:24:54.032Z,97048.04
2019-05-18T10:27:25.621Z,97046.72
2019-05-18T10:29:57.229Z,97044.34
2019-05-18T10:32:29.410Z,97044.66
2019-05-18T10:35:01.090Z,97039.75
2019-05-18T10:37:33.747Z,97034.05
2019-05-18T10:40:06.075Z,97035.13
2019-05-18T10:42:37.701Z,97031.02
2019-05-18T10:45:10.509Z,97034.90
2019-05-18T10:47:42.118Z,97025.84
2019-05-18T10:50:13.809Z,97031.50
2019-05-18T10:52:46.130Z,97025.31
2019-05-18T10:55:17.851Z,97015.46
2019-05-18T10:57:49.526Z,97018.05
2019-05-18T11:00:21.428Z,97014.80
2019-05-18T11:02:53.046Z,97012.91
2019-05-18T11:05:26.100Z,97007.30
2019-05-18T11:07:57.769Z,97003.73
2019-05-18T11:10:29.465Z,97009.14
2019-05-18T11:13:01.096Z,97010.56
2019-05-18T11:15:32.697Z,97009.84
2019-05-18T11:18:04.292Z,97007.61
2019-05-18T11:20:35.896Z,97004.26
2019-05-18T11:23:07.531Z,97000.05
2019-05-18T11:25:39.109Z,96997.37
2019-05-18T11:28:10.773Z,97000.33
2019-05-18T11:30:42.333Z,96997.42
2019-05-18T11:33:13.951Z,96998.11
2019-05-18T11:35:45.958Z,96992.58
2019-05-18T11:38:18.177Z,96990.63
2019-05-18T11:40:50.026Z,96986.36
2019-05-18T11:43:21.680Z,96990.75
2019-05-18T11:45:53.393Z,96983.34
2019-05-18T11:48:25.087Z,96983.55
2019-05-18T11:50:56.781Z,96989.69
2019-05-18T11:53:28.358Z,96988.49
2019-05-18T11:56:00.028Z,96982.10
2019-05-18T11:58:31.613Z,96982.95
2019-05-18T12:01:03.261Z,96978.96
2019-05-18T12:03:34.837Z,96985.92
2019-05-18T12:06:06.587Z,96985.41
2019-05-18T12:08:38.167Z,96991.65
2019-05-18T12:11:09.801Z,96989.28
2019-05-18T12:13:41.429Z,96990.00
2019-05-18T12:16:13.194Z,96986.85
2019-05-18T12:18:44.810Z,96987.33
2019-05-18T12:21:16.416Z,96986.42
2019-05-18T12:23:48.053Z,96984.67
2019-05-18T12:26:22.862Z,96990.30
2019-05-18T12:28:54.932Z,96989.47
2019-05-18T12:31:26.631Z,96984.88
2019-05-18T12:33:58.271Z,96982.13
2019-05-18T12:36:29.964Z,96980.38
2019-05-18T12:39:01.656Z,96977.61
2019-05-18T12:41:33.625Z,96967.10
2019-05-18T12:44:05.226Z,96963.52
2019-05-18T12:46:36.867Z,96961.77
2019-05-18T12:49:08.411Z,96963.11
2019-05-18T12:51:40.043Z,96971.31
2019-05-18T12:54:11.630Z,96966.89
2019-05-18T12:56:43.348Z,96968.55
2019-05-18T12:59:14.949Z,96967.21
2019-05-18T13:01:46.531Z,96974.65
2019-05-18T13:04:18.216Z,96979.95
2019-05-18T13:06:49.812Z,96972.12
2019-05-18T13:09:23.719Z,96977.03
2019-05-18T13:11:54.777Z,96974.35
2019-05-18T13:14:26.432Z,96967.77
2019-05-18T13:16:59.098Z,96966.58
2019-05-18T13:19:30.726Z,96960.70
2019-05-18T13:22:02.644Z,96956.00
2019-05-18T13:24:44.986Z,96957.55
2019-05-18T13:27:07.745Z,96959.55
2019-05-18T13:29:39.381Z,96957.67
2019-05-18T13:32:11.003Z,96956.86
2019-05-18T13:34:42.640Z,96965.75
2019-05-18T13:37:14.241Z,96960.81
2019-05-18T13:39:45.874Z,96959.48
2019-05-18T13:42:17.465Z,96966.87
2019-05-18T13:44:49.127Z,96967.83
2019-05-18T13:47:20.733Z,96961.55
2019-05-18T13:49:52.339Z,96969.02
2019-05-18T13:52:23.941Z,96970.70
2019-05-18T13:55:03.492Z,96992.00
2019-05-18T13:57:28.938Z,97029.67
2019-05-18T14:00:00.616Z,97007.95
2019-05-18T14:02:32.249Z,97010.69
2019-05-18T14:05:03.845Z,97010.20
2019-05-18T14:07:35.448Z,97008.64
2019-05-18T14:10:07.975Z,97016.53
2019-05-18T14:12:39.651Z,97021.11
2019-05-18T14:15:13.077Z,97026.09
2019-05-18T14:17:44.749Z,97015.24
2019-05-18T14:20:16.859Z,97021.91
2019-05-18T14:22:48.489Z,97015.61
2019-05-18T14:25:20.487Z,97011.22
2019-05-18T14:27:52.169Z,97008.52
2019-05-18T14:30:24.038Z,97006.69
2019-05-18T14:32:55.774Z,96999.81
2019-05-18T14:35:27.404Z,96991.70
2019-05-18T14:37:59.023Z,96987.03
2019-05-18T14:40:30.689Z,96977.61
2019-05-18T14:43:02.423Z,96961.48
2019-05-18T14:45:33.976Z,96949.09
2019-05-18T14:48:05.607Z,96939.02
2019-05-18T14:50:37.189Z,96965.92
2019-05-18T14:53:08.831Z,96984.79
2019-05-18T14:55:40.579Z,96981.05
2019-05-18T14:58:12.219Z,96981.95
2019-05-18T15:00:43.866Z,96982.73
2019-05-18T15:03:15.485Z,96979.91
2019-05-18T15:05:47.215Z,96980.64
2019-05-18T15:08:18.943Z,96963.06
2019-05-18T15:10:50.562Z,96962.98
2019-05-18T15:13:22.230Z,96960.56
2019-05-18T15:15:53.864Z,96957.67
2019-05-18T15:18:25.555Z,96962.02
2019-05-18T15:20:58.278Z,96967.97
2019-05-18T15:23:30.032Z,96971.25
2019-05-18T15:26:01.748Z,96963.16
2019-05-18T15:28:33.450Z,96967.55
2019-05-18T15:31:05.186Z,96968.49
2019-05-18T15:33:36.786Z,96967.86
2019-05-18T15:36:08.450Z,96963.19
2019-05-18T15:38:40.073Z,96959.53
2019-05-18T15:41:11.697Z,96960.02
2019-05-18T15:43:43.290Z,96956.38
2019-05-18T15:46:15.146Z,96952.27
2019-05-18T15:48:46.793Z,96953.41
2019-05-18T15:51:18.353Z,96947.69
2019-05-18T15:53:49.956Z,96941.02
2019-05-18T15:56:21.549Z,96949.91
2019-05-18T15:58:53.170Z,96951.52
2019-05-18T16:01:24.763Z,96958.52
2019-05-18T16:03:56.321Z,96954.07
2019-05-18T16:06:27.913Z,96955.20
2019-05-18T16:08:59.511Z,96952.91
2019-05-18T16:11:31.130Z,96949.73
2019-05-18T16:14:03.865Z,96949.16
2019-05-18T16:16:35.469Z,96943.30
2019-05-18T16:19:07.127Z,96940.33
2019-05-18T16:21:39.019Z,96947.56
2019-05-18T16:24:10.619Z,96934.08
2019-05-18T16:26:42.258Z,96926.75
2019-05-18T16:29:13.858Z,96934.64
2019-05-18T16:31:45.486Z,96930.86
2019-05-18T16:34:17.028Z,96932.94
2019-05-18T16:36:49.696Z,96935.78
2019-05-18T16:39:21.296Z,96931.39
2019-05-18T16:41:52.903Z,96929.70
2019-05-18T16:44:24.556Z,96930.08
2019-05-18T16:46:56.160Z,96928.14
2019-05-18T16:49:27.761Z,96928.00
2019-05-18T16:51:59.328Z,96921.91
2019-05-18T16:54:30.949Z,96918.55
2019-05-18T16:57:02.568Z,96918.31
2019-05-18T16:59:34.206Z,96929.08
2019-05-18T17:02:06.773Z,96927.52
2019-05-18T17:04:38.401Z,96927.05
2019-05-18T17:07:10.077Z,96930.22
2019-05-18T17:09:41.738Z,96935.56
2019-05-18T17:12:13.338Z,96933.28
2019-05-18T17:14:44.967Z,96937.95
2019-05-18T17:17:16.551Z,96940.46
2019-05-18T17:19:48.169Z,96939.03
2019-05-18T17:22:19.809Z,96941.24
2019-05-18T17:24:51.459Z,96939.16
2019-05-18T17:27:23.001Z,96943.50
2019-05-18T17:29:54.649Z,96944.86
2019-05-18T17:32:26.228Z,96948.06
2019-05-18T17:34:57.845Z,96951.27
2019-05-18T17:37:29.483Z,96959.06
2019-05-18T17:40:01.102Z,96953.33
2019-05-18T17:42:32.792Z,96949.92
2019-05-18T17:45:04.763Z,96951.28
2019-05-18T17:47:36.478Z,96951.36
2019-05-18T17:50:08.729Z,96956.02
2019-05-18T17:52:40.323Z,96962.16
2019-05-18T17:55:16.206Z,96959.22
2019-05-18T17:57:46.544Z,96961.81
2019-05-18T18:00:18.967Z,96966.69
2019-05-18T18:02:50.605Z,96972.20
2019-05-18T18:05:22.233Z,96983.34
2019-05-18T18:07:55.645Z,96987.84
2019-05-18T18:10:28.233Z,97010.69
2019-05-18T18:12:59.869Z,97024.10
2019-05-18T18:15:31.555Z,97034.16
2019-05-18T18:18:03.270Z,97027.99
2019-05-18T18:20:34.870Z,97030.97
2019-05-18T18:23:06.545Z,97032.12
2019-05-18T18:25:38.216Z,97049.11
2019-05-18T18:28:09.809Z,97059.39
2019-05-18T18:30:41.406Z,97051.37
2019-05-18T18:33:13.043Z,97044.95
2019-05-18T18:35:44.664Z,97042.18
2019-05-18T18:38:16.354Z,97050.56
2019-05-18T18:40:47.968Z,97057.48
2019-05-18T18:43:20.512Z,97042.44
2019-05-18T18:45:52.150Z,97038.38
2019-05-18T18:48:26.387Z,97038.22
2019-05-18T18:50:57.080Z,97032.77
2019-05-18T18:53:28.709Z,97032.02
2019-05-18T18:56:00.360Z,97033.64
2019-05-18T18:58:31.996Z,97032.66
2019-05-18T19:01:03.595Z,97025.88
2019-05-18T19:03:35.205Z,97027.66
2019-05-18T19:06:06.822Z,97034.59
2019-05-18T19:08:38.459Z,97027.66
2019-05-18T19:11:29.145Z,97026.39
2019-05-18T19:14:00.737Z,97032.83
2019-05-18T19:16:32.332Z,97032.19
2019-05-18T19:19:03.978Z,97016.39
2019-05-18T19:21:35.611Z,97017.58
2019-05-18T19:24:07.277Z,97015.59
2019-05-18T19:26:38.926Z,97018.91
2019-05-18T19:29:10.513Z,97027.67
2019-05-18T19:31:42.124Z,97028.17
2019-05-18T19:34:13.818Z,97028.52
2019-05-18T19:36:45.505Z,97033.45
2019-05-18T19:39:18.798Z,97033.98
2019-05-18T19:41:50.430Z,97034.49
2019-05-18T19:44:23.970Z,97036.16
2019-05-18T19:46:55.390Z,97032.72
2019-05-18T19:49:26.965Z,97034.38
2019-05-18T19:51:58.592Z,97032.25
2019-05-18T19:54:30.201Z,97037.52
2019-05-18T19:57:01.951Z,97036.53
2019-05-18T19:59:33.603Z,97041.81
2019-05-18T20:02:05.328Z,97037.66
2019-05-18T20:04:36.980Z,97047.39
2019-05-18T20:07:08.615Z,97043.09
2019-05-18T20:09:40.215Z,97040.97
2019-05-18T20:12:11.814Z,97036.34
2019-05-18T20:14:43.401Z,97033.57
2019-05-18T20:17:15.075Z,97038.51
2019-05-18T20:19:46.667Z,97037.05
2019-05-18T20:22:18.297Z,97034.59
2019-05-18T20:24:49.945Z,97032.30
2019-05-18T20:27:21.559Z,97032.77
2019-05-18T20:29:53.166Z,97030.00
2019-05-18T20:32:24.852Z,97028.85
2019-05-18T20:34:56.475Z,97031.66
2019-05-18T20:37:28.075Z,97032.63
2019-05-18T20:39:59.761Z,97032.47
2019-05-18T20:42:31.358Z,97028.21
2019-05-18T20:45:02.952Z,97034.80
2019-05-18T20:47:36.079Z,97033.31
2019-05-18T20:50:08.384Z,97029.05
2019-05-18T20:52:40.027Z,97033.00
2019-05-18T20:55:11.739Z,97035.64
2019-05-18T20:57:43.393Z,97037.30
2019-05-18T21:00:15.915Z,97038.10
2019-05-18T21:02:47.594Z,97032.36
2019-05-18T21:05:19.205Z,97036.51
2019-05-18T21:07:50.951Z,97037.66
2019-05-18T21:10:22.565Z,97043.73
2019-05-18T21:12:54.184Z,97037.02
2019-05-18T21:15:26.292Z,97027.62
2019-05-18T21:17:57.935Z,97036.02
2019-05-18T21:20:30.605Z,97037.67
2019-05-18T21:23:02.260Z,97045.73
2019-05-18T21:25:34.433Z,97051.83
2019-05-18T21:28:06.055Z,97041.63
2019-05-18T21:30:37.638Z,97040.00
2019-05-18T21:33:09.275Z,97042.97
2019-05-18T21:35:40.869Z,97036.07
2019-05-18T21:38:12.492Z,97039.03
2019-05-18T21:40:44.220Z,97036.73
2019-05-18T21:43:15.844Z,97039.19
2019-05-18T21:45:47.429Z,97044.28
2019-05-18T21:48:19.021Z,97044.11
2019-05-18T21:50:50.599Z,97046.56
2019-05-18T21:53:22.297Z,97039.00
2019-05-18T21:55:53.897Z,97041.11
2019-05-18T21:58:25.549Z,97044.41
2019-05-18T22:00:57.225Z,97040.29
2019-05-18T22:03:28.982Z,97038.98
2019-05-18T22:06:00.557Z,97033.07
2019-05-18T22:08:32.328Z,97035.04
2019-05-18T22:11:03.930Z,97029.91
2019-05-18T22:13:35.757Z,97032.72
2019-05-18T22:16:07.355Z,97027.59
2019-05-18T22:18:39.009Z,97023.95
2019-05-18T22:21:10.998Z,97020.53
2019-05-18T22:23:42.618Z,97020.69
2019-05-18T22:26:14.253Z,97024.11
2019-05-18T22:28:45.876Z,97026.41
2019-05-18T22:31:19.589Z,97027.55
2019-05-18T22:33:50.831Z,97030.17
2019-05-18T22:36:22.474Z,97030.83
2019-05-18T22:38:54.081Z,97035.42
2019-05-18T22:41:25.686Z,97032.27
2019-05-18T22:43:57.287Z,97034.56
2019-05-18T22:46:28.902Z,97032.07
2019-05-18T22:49:00.519Z,97025.17
2019-05-18T22:51:32.158Z,97027.48
2019-05-18T22:54:03.790Z,97034.64
2019-05-18T22:56:35.409Z,97042.84
2019-05-18T22:59:07.005Z,97041.88
2019-05-18T23:01:38.637Z,97047.66
2019-05-18T23:04:11.547Z,97044.41
2019-05-18T23:06:43.140Z,97044.66
2019-05-18T23:09:14.835Z,97052.98
2019-05-18T23:11:46.536Z,97047.54
2019-05-18T23:14:18.127Z,97046.35
2019-05-18T23:16:49.718Z,97045.85
2019-05-18T23:19:21.319Z,97037.63
2019-05-18T23:21:52.912Z,97034.00
2019-05-18T23:24:24.488Z,97032.03
2019-05-18T23:26:56.101Z,97037.94
2019-05-18T23:29:28.731Z,97041.53
2019-05-18T23:32:00.360Z,97047.72
2019-05-18T23:34:31.979Z,97038.14
2019-05-18T23:37:03.555Z,97041.23
2019-05-18T23:39:35.228Z,97034.83
2019-05-18T23:42:06.835Z,97029.42
2019-05-18T23:44:38.458Z,97030.27
2019-05-18T23:47:10.033Z,97022.20
2019-05-18T23:49:41.665Z,97025.18
2019-05-18T23:52:13.221Z,97019.58
2019-05-18T23:54:44.826Z,97018.42
2019-05-18T23:57:16.504Z,97019.70
2019-05-18T23:59:48.123Z,97027.57
